Ana Sayfa
METAR-TAF:

METAR-TAF

Havaalanları :

Jim Kelly Field

Lexington, Nebraska, Amerika Birleşik Devletleri

Enlem: 40-47-28N, Boylam: 099-46-38W, yükseklik: 736 m

Güncel hava durumu gözlemi

Rapor saat 22:35 UTC de 14 dakika önce yapıldı.
Rüzgar güney/güneydoğudan 5 kt
Sıcaklık 25°C
Nem 54%
Basınç 1024 hPa
Görüş mesafesi: 16.1 km
Açık gökyüzü

METAR: KLXN 232235Z AUTO 15005KT 10SM CLR 25/15 A3025 RMK AO2 T02460154

Saat: 17:49 (22:49 UTC)


TAF: eksik

4.000'den fazla havaalanı için hava durumu gözlemleri ve tahminleri (METAR ve TAF raporları).

Kullanılabilir istasyonlar harita üzerinde sarı ve kırmızı noktalarla gösterilir.

İstasyonun adını görmek için fareyi noktanın üzerinde gezdirin.

Sonrasında hava gözlem ve tahminlerini görmek için tıklayın.

Haritayı değiştirmek için: yaklaştırmak için siyah artı işaretli yeşil düğmeye ve uzaklaştırmak için de eksi işaretli düğmeye hızla tıklayın; bitişik haritalar için yeşil okları kullanın.


METAR-TAF: